createdAt,value
2017-05-04T00:00:30.129Z,12
2017-05-04T00:01:43.853Z,12
2017-05-04T00:02:58.791Z,12
2017-05-04T00:04:12.777Z,12
2017-05-04T00:05:26.422Z,12
2017-05-04T00:06:40.612Z,12
2017-05-04T00:07:54.829Z,12
2017-05-04T00:09:08.597Z,8
2017-05-04T00:10:22.490Z,8
2017-05-04T00:11:36.306Z,12
2017-05-04T00:12:50.743Z,12
2017-05-04T00:14:05.119Z,12
2017-05-04T00:15:18.980Z,4
2017-05-04T00:16:32.881Z,12
2017-05-04T00:17:47.263Z,12
2017-05-04T00:19:01.779Z,12
2017-05-04T00:20:16.313Z,4
2017-05-04T00:21:30.626Z,12
2017-05-04T00:22:44.877Z,16
2017-05-04T00:23:58.620Z,16
2017-05-04T00:25:12.341Z,12
2017-05-04T00:26:26.559Z,12
2017-05-04T00:27:40.336Z,4
2017-05-04T00:28:54.677Z,12
2017-05-04T00:30:08.949Z,12
2017-05-04T00:31:22.833Z,12
2017-05-04T00:32:36.581Z,12
2017-05-04T00:33:50.916Z,8
2017-05-04T00:35:05.288Z,4
2017-05-04T00:36:19.694Z,12
2017-05-04T00:37:34.270Z,12
2017-05-04T00:38:48.195Z,12
2017-05-04T00:40:02.774Z,16
2017-05-04T00:41:17.078Z,12
2017-05-04T00:42:31.439Z,4
2017-05-04T00:43:45.868Z,4
2017-05-04T00:45:00.460Z,4
2017-05-04T00:46:13.263Z,12
2017-05-04T00:47:26.917Z,12
2017-05-04T00:48:39.221Z,12
2017-05-04T00:49:52.006Z,12
2017-05-04T00:51:04.993Z,12
2017-05-04T00:52:17.294Z,12
2017-05-04T00:53:29.597Z,12
2017-05-04T00:54:41.898Z,12
2017-05-04T00:55:54.685Z,12
2017-05-04T00:57:07.764Z,12
2017-05-04T00:58:20.545Z,4
2017-05-04T00:59:33.323Z,4
2017-05-04T01:00:46.112Z,16
2017-05-04T01:01:58.891Z,12
2017-05-04T01:03:11.679Z,12
2017-05-04T01:04:23.977Z,12
2017-05-04T01:05:36.761Z,12
2017-05-04T01:06:49.554Z,12
2017-05-04T01:08:02.058Z,12
2017-05-04T01:09:14.839Z,12
2017-05-04T01:10:27.140Z,12
2017-05-04T01:11:39.926Z,12
2017-05-04T01:12:52.709Z,12
2017-05-04T01:14:05.490Z,12
2017-05-04T01:15:16.825Z,12
2017-05-04T01:16:29.605Z,12
2017-05-04T01:17:41.909Z,12
2017-05-04T01:19:08.291Z,12
2017-05-04T01:20:21.072Z,12
2017-05-04T01:21:33.376Z,12
2017-05-04T01:22:46.156Z,12
2017-05-04T01:23:58.935Z,12
2017-05-04T01:25:10.756Z,12
2017-05-04T01:26:23.055Z,12
2017-05-04T01:27:35.357Z,12
2017-05-04T01:28:48.417Z,12
2017-05-04T01:30:01.205Z,12
2017-05-04T01:31:13.984Z,4
2017-05-04T01:32:26.764Z,12
2017-05-04T01:33:39.545Z,12
2017-05-04T01:34:52.330Z,4
2017-05-04T01:36:05.117Z,12
2017-05-04T01:37:17.431Z,12
2017-05-04T01:38:30.239Z,12
2017-05-04T01:39:43.278Z,4
2017-05-04T01:40:55.589Z,12
2017-05-04T01:42:08.380Z,12
2017-05-04T01:43:21.209Z,12
2017-05-04T01:44:34.015Z,16
2017-05-04T01:45:46.803Z,12
2017-05-04T01:46:59.598Z,12
2017-05-04T01:48:12.391Z,4
2017-05-04T01:49:24.703Z,4
2017-05-04T01:50:37.493Z,4
2017-05-04T01:51:50.280Z,4
2017-05-04T01:53:03.072Z,12
2017-05-04T01:54:15.390Z,16
2017-05-04T01:55:28.180Z,16
2017-05-04T01:56:41.285Z,16
2017-05-04T01:57:54.082Z,12
2017-05-04T01:59:06.892Z,4
2017-05-04T02:00:19.678Z,4
2017-05-04T02:01:31.985Z,4
2017-05-04T02:02:44.777Z,4
2017-05-04T02:03:57.567Z,16
2017-05-04T02:05:10.359Z,12
2017-05-04T02:06:23.151Z,12
2017-05-04T02:07:35.938Z,4
2017-05-04T02:08:48.737Z,4
2017-05-04T02:10:01.536Z,4
2017-05-04T02:11:13.843Z,16
2017-05-04T02:12:26.635Z,16
2017-05-04T02:13:38.949Z,12
2017-05-04T02:14:51.757Z,12
2017-05-04T02:16:04.543Z,12
2017-05-04T02:17:17.347Z,12
2017-05-04T02:18:44.221Z,12
2017-05-04T02:19:57.010Z,12
2017-05-04T02:21:09.802Z,12
2017-05-04T02:22:22.109Z,12
2017-05-04T02:23:34.891Z,12
2017-05-04T02:24:47.678Z,12
2017-05-04T02:26:00.460Z,12
2017-05-04T02:27:13.240Z,4
2017-05-04T02:28:26.276Z,12
2017-05-04T02:29:39.058Z,12
2017-05-04T02:30:51.358Z,12
2017-05-04T02:32:04.145Z,12
2017-05-04T02:33:16.451Z,12
2017-05-04T02:34:29.434Z,12
2017-05-04T02:35:42.247Z,12
2017-05-04T02:36:55.027Z,12
2017-05-04T02:38:07.329Z,12
2017-05-04T02:39:19.632Z,8
2017-05-04T02:40:32.416Z,12
2017-05-04T02:41:45.209Z,16
2017-05-04T02:42:57.999Z,12
2017-05-04T02:44:10.305Z,12
2017-05-04T02:45:23.324Z,12
2017-05-04T02:46:36.108Z,12
2017-05-04T02:47:48.899Z,12
2017-05-04T02:49:01.691Z,12
2017-05-04T02:50:14.682Z,12
2017-05-04T02:51:27.465Z,12
2017-05-04T02:52:40.251Z,12
2017-05-04T02:53:53.039Z,12
2017-05-04T02:55:05.342Z,12
2017-05-04T02:56:18.329Z,12
2017-05-04T02:57:31.110Z,8
2017-05-04T02:58:43.411Z,4
2017-05-04T02:59:56.199Z,12
2017-05-04T03:01:08.018Z,12
2017-05-04T03:02:20.801Z,4
2017-05-04T03:03:33.587Z,4
2017-05-04T03:04:46.370Z,12
2017-05-04T03:05:59.158Z,16
2017-05-04T03:07:12.253Z,12
2017-05-04T03:08:24.560Z,8
2017-05-04T03:09:37.348Z,12
2017-05-04T03:10:50.143Z,12
2017-05-04T03:12:03.241Z,12
2017-05-04T03:13:15.555Z,12
2017-05-04T03:14:27.873Z,12
2017-05-04T03:15:40.668Z,12
2017-05-04T03:16:53.462Z,12
2017-05-04T03:18:06.256Z,12
2017-05-04T03:19:19.057Z,12
2017-05-04T03:20:31.853Z,12
2017-05-04T03:21:44.639Z,12
2017-05-04T03:22:57.429Z,4
2017-05-04T03:24:10.221Z,12
2017-05-04T03:25:22.042Z,12
2017-05-04T03:26:34.833Z,12
2017-05-04T03:27:47.619Z,12
2017-05-04T03:29:00.407Z,12
2017-05-04T03:30:12.717Z,12
2017-05-04T03:31:25.521Z,12
2017-05-04T03:32:38.316Z,4
2017-05-04T03:33:51.108Z,12
2017-05-04T03:35:03.418Z,12
2017-05-04T03:36:15.729Z,12
2017-05-04T03:37:28.550Z,12
2017-05-04T03:38:40.860Z,12
2017-05-04T03:39:53.646Z,12
2017-05-04T03:41:06.443Z,4
2017-05-04T03:42:19.236Z,12
2017-05-04T03:43:31.542Z,12
2017-05-04T03:44:42.881Z,12
2017-05-04T03:45:55.678Z,12
2017-05-04T03:47:08.472Z,16
2017-05-04T03:48:21.268Z,12
2017-05-04T03:49:33.577Z,12
2017-05-04T03:50:46.394Z,12
2017-05-04T03:51:59.179Z,4
2017-05-04T03:53:11.962Z,12
2017-05-04T03:54:24.263Z,12
2017-05-04T03:55:37.347Z,12
2017-05-04T03:56:50.130Z,16
2017-05-04T03:58:02.910Z,12
2017-05-04T03:59:15.207Z,12
2017-05-04T04:00:27.509Z,12
2017-05-04T04:01:40.291Z,4
2017-05-04T04:02:53.078Z,12
2017-05-04T04:04:05.877Z,12
2017-05-04T04:05:18.665Z,12
2017-05-04T04:06:31.442Z,12
2017-05-04T04:07:44.230Z,12
2017-05-04T04:08:56.533Z,4
2017-05-04T04:10:08.834Z,4
2017-05-04T04:11:20.651Z,4
2017-05-04T04:12:33.731Z,12
2017-05-04T04:13:46.545Z,12
2017-05-04T04:14:59.338Z,4
2017-05-04T04:16:12.692Z,12
2017-05-04T04:17:25.039Z,16
2017-05-04T04:18:37.343Z,12
2017-05-04T04:19:49.162Z,12
2017-05-04T04:21:01.952Z,12
2017-05-04T04:22:14.731Z,12
2017-05-04T04:23:27.514Z,16
2017-05-04T04:24:39.812Z,12
2017-05-04T04:25:52.592Z,8
2017-05-04T04:27:05.374Z,12
2017-05-04T04:28:18.357Z,12
2017-05-04T04:29:31.146Z,12
2017-05-04T04:30:42.965Z,8
2017-05-04T04:31:55.754Z,12
2017-05-04T04:33:08.536Z,12
2017-05-04T04:34:21.139Z,12
2017-05-04T04:35:33.440Z,4
2017-05-04T04:36:45.259Z,12
2017-05-04T04:37:58.046Z,16
2017-05-04T04:39:10.827Z,8
2017-05-04T04:40:23.609Z,12
2017-05-04T04:41:36.389Z,12
2017-05-04T04:42:49.179Z,12
2017-05-04T04:44:01.975Z,12
2017-05-04T04:45:14.579Z,12
2017-05-04T04:46:26.881Z,12
2017-05-04T04:47:38.701Z,12
2017-05-04T04:48:51.485Z,4
2017-05-04T04:50:03.981Z,4
2017-05-04T04:51:15.798Z,12
2017-05-04T04:52:28.575Z,16
2017-05-04T04:53:40.872Z,12
2017-05-04T04:54:53.654Z,12
2017-05-04T04:56:06.439Z,12
2017-05-04T04:57:19.225Z,12
2017-05-04T04:58:32.006Z,12
2017-05-04T04:59:44.318Z,12
2017-05-04T05:00:57.095Z,12
2017-05-04T05:02:09.877Z,12
2017-05-04T05:03:22.175Z,12
2017-05-04T05:04:34.985Z,12
2017-05-04T05:05:47.777Z,12
2017-05-04T05:07:00.376Z,12
2017-05-04T05:08:12.199Z,12
2017-05-04T05:09:24.981Z,12
2017-05-04T05:10:37.768Z,12
2017-05-04T05:11:50.753Z,12
2017-05-04T05:13:03.048Z,12
2017-05-04T05:14:15.355Z,12
2017-05-04T05:15:28.136Z,12
2017-05-04T05:16:40.914Z,12
2017-05-04T05:17:53.222Z,16
2017-05-04T05:19:06.014Z,8
2017-05-04T05:20:18.311Z,12
2017-05-04T05:21:31.091Z,12
2017-05-04T05:22:44.170Z,12
2017-05-04T05:23:56.953Z,12
2017-05-04T05:25:09.257Z,12
2017-05-04T05:26:21.556Z,12
2017-05-04T05:27:34.337Z,12
2017-05-04T05:28:46.846Z,12
2017-05-04T05:29:59.148Z,12
2017-05-04T05:31:11.929Z,16
2017-05-04T05:32:24.714Z,12
2017-05-04T05:33:37.795Z,12
2017-05-04T05:34:50.103Z,12
2017-05-04T05:36:02.885Z,4
2017-05-04T05:37:15.183Z,12
2017-05-04T05:38:27.962Z,12
2017-05-04T05:39:41.047Z,12
2017-05-04T05:40:53.347Z,12
2017-05-04T05:42:06.129Z,4
2017-05-04T05:43:17.951Z,12
2017-05-04T05:44:30.934Z,12
2017-05-04T05:45:43.716Z,8
2017-05-04T05:46:56.502Z,12
2017-05-04T05:48:09.283Z,12
2017-05-04T05:49:22.065Z,12
2017-05-04T05:50:34.364Z,12
2017-05-04T05:51:46.664Z,4
2017-05-04T05:52:59.446Z,4
2017-05-04T05:54:12.226Z,12
2017-05-04T05:55:24.524Z,12
2017-05-04T05:56:36.822Z,12
2017-05-04T05:57:49.121Z,4
2017-05-04T05:59:01.900Z,4
2017-05-04T06:00:14.682Z,12
2017-05-04T06:01:27.766Z,12
2017-05-04T06:02:40.549Z,12
2017-05-04T06:03:53.336Z,12
2017-05-04T06:05:06.124Z,12
2017-05-04T06:06:18.621Z,12
2017-05-04T06:07:31.403Z,8
2017-05-04T06:08:43.704Z,4
2017-05-04T06:09:56.485Z,4
2017-05-04T06:11:09.267Z,4
2017-05-04T06:12:22.347Z,4
2017-05-04T06:13:35.128Z,12
2017-05-04T06:14:47.913Z,16
2017-05-04T06:16:00.214Z,12
2017-05-04T06:17:12.511Z,4
2017-05-04T06:18:25.318Z,12
2017-05-04T06:19:38.099Z,12
2017-05-04T06:20:50.400Z,12
2017-05-04T06:22:03.183Z,12
2017-05-04T06:23:16.265Z,8
2017-05-04T06:24:29.051Z,12
2017-05-04T06:25:41.831Z,12
2017-05-04T06:26:54.130Z,12
2017-05-04T06:28:07.210Z,12
2017-05-04T06:29:19.992Z,8
2017-05-04T06:30:32.772Z,8
2017-05-04T06:31:45.567Z,12
2017-05-04T06:32:57.391Z,12
2017-05-04T06:34:09.992Z,12
2017-05-04T06:35:22.775Z,4
2017-05-04T06:36:35.559Z,12
2017-05-04T06:37:48.335Z,16
2017-05-04T06:39:01.115Z,12
2017-05-04T06:40:13.418Z,12
2017-05-04T06:41:25.727Z,12
2017-05-04T06:42:38.509Z,12
2017-05-04T06:43:51.291Z,12
2017-05-04T06:45:03.791Z,8
2017-05-04T06:46:16.091Z,12
2017-05-04T06:47:28.871Z,12
2017-05-04T06:48:41.169Z,12
2017-05-04T06:49:54.152Z,4
2017-05-04T06:51:06.934Z,4
2017-05-04T06:52:19.723Z,12
2017-05-04T06:53:32.038Z,16
2017-05-04T06:54:44.837Z,16
2017-05-04T06:55:56.655Z,12
2017-05-04T06:57:08.961Z,12
2017-05-04T06:58:21.271Z,4
2017-05-04T06:59:33.583Z,4
2017-05-04T07:00:46.363Z,4
2017-05-04T07:01:59.146Z,12
2017-05-04T07:03:11.943Z,12
2017-05-04T07:04:23.770Z,12
2017-05-04T07:05:36.553Z,12
2017-05-04T07:06:49.544Z,12
2017-05-04T07:08:02.347Z,12
2017-05-04T07:09:15.145Z,12
2017-05-04T07:10:27.932Z,12
2017-05-04T07:11:40.919Z,12
2017-05-04T07:12:53.228Z,12
2017-05-04T07:14:06.014Z,12
2017-05-04T07:15:17.855Z,4
2017-05-04T07:16:30.643Z,12
2017-05-04T07:17:43.632Z,12
2017-05-04T07:18:56.421Z,12
2017-05-04T07:20:08.731Z,12
2017-05-04T07:21:20.553Z,12
2017-05-04T07:22:32.858Z,8
2017-05-04T07:23:45.169Z,4
2017-05-04T07:24:57.963Z,12
2017-05-04T07:26:10.752Z,12
2017-05-04T07:27:23.534Z,12
2017-05-04T07:28:36.321Z,12
2017-05-04T07:29:49.118Z,12
2017-05-04T07:31:01.426Z,4
2017-05-04T07:32:13.745Z,4
2017-05-04T07:33:26.058Z,12
2017-05-04T07:34:38.367Z,12
2017-05-04T07:35:51.161Z,4
2017-05-04T07:37:03.473Z,4
2017-05-04T07:38:15.774Z,4
2017-05-04T07:39:27.894Z,4
2017-05-04T07:40:40.686Z,12
2017-05-04T07:41:53.480Z,12
2017-05-04T07:43:06.270Z,4
2017-05-04T07:44:18.776Z,16
2017-05-04T07:45:31.565Z,16
2017-05-04T07:46:43.888Z,12
2017-05-04T07:47:56.684Z,12
2017-05-04T07:49:09.471Z,12
2017-05-04T07:50:22.073Z,12
2017-05-04T07:51:34.872Z,12
2017-05-04T07:52:47.664Z,12
2017-05-04T07:53:59.968Z,4
2017-05-04T07:55:12.953Z,4
2017-05-04T07:56:24.775Z,12
2017-05-04T07:57:37.565Z,12
2017-05-04T07:58:50.350Z,12
2017-05-04T08:00:03.141Z,12
2017-05-04T08:01:43.590Z,12
2017-05-04T08:02:55.899Z,16
2017-05-04T08:04:08.217Z,12
2017-05-04T08:05:20.244Z,12
2017-05-04T08:06:33.030Z,4
2017-05-04T08:07:45.822Z,4
2017-05-04T08:08:58.131Z,4
2017-05-04T08:10:09.470Z,16
2017-05-04T08:11:21.769Z,12
2017-05-04T08:12:34.559Z,12
2017-05-04T08:13:47.351Z,12
2017-05-04T08:15:00.150Z,12
2017-05-04T08:16:12.935Z,12
2017-05-04T08:17:25.243Z,12
2017-05-04T08:18:37.563Z,4
2017-05-04T08:19:48.914Z,12
2017-05-04T08:21:01.216Z,12
2017-05-04T08:22:13.518Z,12
2017-05-04T08:23:25.334Z,12
2017-05-04T08:24:38.443Z,12
2017-05-04T08:25:51.221Z,12
2017-05-04T08:27:03.998Z,12
2017-05-04T08:28:16.127Z,12
2017-05-04T08:29:28.917Z,12
2017-05-04T08:30:41.213Z,12
2017-05-04T08:31:53.995Z,12
2017-05-04T08:33:07.078Z,4
2017-05-04T08:34:19.381Z,4
2017-05-04T08:35:32.164Z,16
2017-05-04T08:36:44.946Z,12
2017-05-04T08:37:57.244Z,12
2017-05-04T08:39:09.843Z,12
2017-05-04T08:40:22.142Z,4
2017-05-04T08:41:34.924Z,4
2017-05-04T08:42:47.705Z,4
2017-05-04T08:44:00.482Z,4
2017-05-04T08:45:13.279Z,12
2017-05-04T08:46:26.060Z,16
2017-05-04T08:47:37.878Z,16
2017-05-04T08:48:50.668Z,12
2017-05-04T08:50:02.974Z,12
2017-05-04T08:51:15.277Z,12
2017-05-04T08:52:27.572Z,12
2017-05-04T08:53:40.363Z,12
2017-05-04T08:54:53.445Z,8
2017-05-04T08:56:06.238Z,8
2017-05-04T08:57:18.539Z,4
2017-05-04T08:58:29.879Z,12
2017-05-04T08:59:41.700Z,4
2017-05-04T09:00:54.477Z,12
2017-05-04T09:02:06.292Z,12
2017-05-04T09:03:18.594Z,12
2017-05-04T09:04:31.373Z,4
2017-05-04T09:05:44.167Z,12
2017-05-04T09:06:57.244Z,12
2017-05-04T09:08:09.547Z,12
2017-05-04T09:09:21.371Z,8
2017-05-04T09:10:33.694Z,8
2017-05-04T09:11:45.991Z,12
2017-05-04T09:12:58.771Z,12
2017-05-04T09:14:10.598Z,12
2017-05-04T09:15:22.429Z,12
2017-05-04T09:16:34.734Z,16
2017-05-04T09:17:47.716Z,16
2017-05-04T09:19:00.502Z,12
2017-05-04T09:20:12.810Z,8
2017-05-04T09:21:25.633Z,4
2017-05-04T09:22:38.418Z,16
2017-05-04T09:23:51.205Z,16
2017-05-04T09:25:03.994Z,20
2017-05-04T09:26:16.298Z,20
2017-05-04T09:27:28.821Z,20
2017-05-04T09:28:41.618Z,16
2017-05-04T09:29:54.411Z,16
2017-05-04T09:31:07.196Z,8
2017-05-04T09:32:19.499Z,12
2017-05-04T09:33:32.326Z,12
2017-05-04T09:34:45.119Z,16
2017-05-04T09:35:57.911Z,20
2017-05-04T09:37:10.222Z,20
2017-05-04T09:38:22.527Z,24
2017-05-04T09:39:35.316Z,28
2017-05-04T09:40:48.110Z,28
2017-05-04T09:42:00.898Z,32
2017-05-04T09:43:13.209Z,36
2017-05-04T09:44:25.823Z,40
2017-05-04T09:45:38.136Z,44
2017-05-04T09:46:50.919Z,44
2017-05-04T09:48:03.229Z,52
2017-05-04T09:49:16.020Z,52
2017-05-04T09:50:29.016Z,56
2017-05-04T09:51:41.316Z,64
2017-05-04T09:52:54.114Z,68
2017-05-04T09:54:06.414Z,72
2017-05-04T09:55:19.404Z,76
2017-05-04T09:56:31.232Z,84
2017-05-04T09:57:44.029Z,92
2017-05-04T09:58:56.334Z,100
2017-05-04T10:00:08.645Z,108
2017-05-04T10:01:21.731Z,108
2017-05-04T10:02:34.525Z,104
2017-05-04T10:03:47.311Z,104
2017-05-04T10:05:00.099Z,92
2017-05-04T10:06:12.613Z,76
2017-05-04T10:07:25.413Z,88
2017-05-04T10:08:38.205Z,96
2017-05-04T10:09:50.996Z,100
2017-05-04T10:11:03.789Z,108
2017-05-04T10:12:15.617Z,104
2017-05-04T10:13:27.444Z,108
2017-05-04T10:14:40.228Z,112
2017-05-04T10:15:52.530Z,124
2017-05-04T10:17:05.518Z,144
2017-05-04T10:18:18.314Z,164
2017-05-04T10:19:31.100Z,168
2017-05-04T10:20:42.939Z,176
2017-05-04T10:21:55.734Z,180
2017-05-04T10:23:08.344Z,196
2017-05-04T10:24:20.654Z,172
2017-05-04T10:25:32.957Z,124
2017-05-04T10:26:45.749Z,176
2017-05-04T10:27:58.544Z,204
2017-05-04T10:29:11.332Z,212
2017-05-04T10:30:24.118Z,224
2017-05-04T10:31:36.429Z,228
2017-05-04T10:32:49.223Z,216
2017-05-04T10:34:02.221Z,204
2017-05-04T10:35:15.005Z,212
2017-05-04T10:36:27.313Z,212
2017-05-04T10:37:40.107Z,232
2017-05-04T10:38:53.094Z,252
2017-05-04T10:40:05.878Z,264
2017-05-04T10:41:17.692Z,280
2017-05-04T10:42:29.989Z,288
2017-05-04T10:43:42.775Z,316
2017-05-04T10:44:55.555Z,356
2017-05-04T10:46:08.337Z,340
2017-05-04T10:47:20.639Z,340
2017-05-04T10:48:32.935Z,336
2017-05-04T10:49:45.726Z,352
2017-05-04T10:50:58.506Z,360
2017-05-04T10:52:11.290Z,380
2017-05-04T10:53:24.069Z,396
2017-05-04T10:54:36.370Z,404
2017-05-04T10:55:49.152Z,416
2017-05-04T10:57:01.479Z,424
2017-05-04T10:58:13.777Z,428
2017-05-04T10:59:26.554Z,436
2017-05-04T11:00:53.416Z,456
2017-05-04T11:02:06.198Z,460
2017-05-04T11:03:18.976Z,468
2017-05-04T11:04:31.279Z,448
2017-05-04T11:05:44.058Z,420
2017-05-04T11:06:56.837Z,376
2017-05-04T11:08:09.624Z,404
2017-05-04T11:09:22.404Z,428
2017-05-04T11:10:35.186Z,452
2017-05-04T11:11:48.165Z,468
2017-05-04T11:13:00.945Z,464
2017-05-04T11:14:13.735Z,480
2017-05-04T11:15:26.515Z,488
2017-05-04T11:16:38.816Z,500
2017-05-04T11:17:51.603Z,524
2017-05-04T11:19:04.385Z,528
2017-05-04T11:20:17.169Z,544
2017-05-04T11:21:29.952Z,556
2017-05-04T11:22:42.946Z,540
2017-05-04T11:23:55.727Z,532
2017-05-04T11:25:08.515Z,544
2017-05-04T11:26:21.293Z,544
2017-05-04T11:27:33.592Z,536
2017-05-04T11:28:46.403Z,540
2017-05-04T11:29:59.186Z,624
2017-05-04T11:31:11.968Z,712
2017-05-04T11:32:23.787Z,816
2017-05-04T11:33:36.870Z,988
2017-05-04T11:34:49.651Z,1132
2017-05-04T11:36:02.440Z,1216
2017-05-04T11:37:15.217Z,1224
2017-05-04T11:38:27.726Z,1224
2017-05-04T11:39:40.026Z,1232
2017-05-04T11:40:52.327Z,1228
2017-05-04T11:42:05.117Z,1220
2017-05-04T11:43:16.933Z,1252
2017-05-04T11:44:29.737Z,1288
2017-05-04T11:45:42.518Z,1348
2017-05-04T11:46:54.813Z,1380
2017-05-04T11:48:06.638Z,1436
2017-05-04T11:49:19.421Z,1440
2017-05-04T11:50:32.230Z,1420
2017-05-04T11:51:45.017Z,1392
2017-05-04T11:52:57.811Z,1340
2017-05-04T11:54:10.111Z,1328
2017-05-04T11:55:22.901Z,1320
2017-05-04T11:56:35.207Z,1396
2017-05-04T11:57:48.000Z,1436
2017-05-04T11:59:00.784Z,1440
2017-05-04T12:00:13.285Z,1336
2017-05-04T12:01:25.101Z,1396
2017-05-04T12:02:37.880Z,1452
2017-05-04T12:03:50.185Z,1416
2017-05-04T12:05:02.485Z,1296
2017-05-04T12:06:15.265Z,1060
2017-05-04T12:07:27.085Z,992
2017-05-04T12:08:39.867Z,988
2017-05-04T12:09:52.656Z,1248
2017-05-04T12:11:05.439Z,1540
2017-05-04T12:12:17.743Z,1436
2017-05-04T12:13:30.044Z,1520
2017-05-04T12:14:42.345Z,1512
2017-05-04T12:15:54.656Z,1480
2017-05-04T12:17:07.637Z,1524
2017-05-04T12:18:20.418Z,1576
2017-05-04T12:19:32.240Z,1676
2017-05-04T12:20:45.023Z,1660
2017-05-04T12:21:58.006Z,1672
2017-05-04T12:23:10.790Z,1640
2017-05-04T12:24:22.607Z,1684
2017-05-04T12:25:35.394Z,1684
2017-05-04T12:26:47.699Z,1760
2017-05-04T12:28:00.204Z,1792
2017-05-04T12:29:12.988Z,1808
2017-05-04T12:30:24.835Z,1796
2017-05-04T12:31:37.148Z,1800
2017-05-04T12:32:49.942Z,1788
2017-05-04T12:34:02.731Z,1844
2017-05-04T12:35:15.036Z,1800
2017-05-04T12:36:27.831Z,1780
2017-05-04T12:37:40.136Z,1788
2017-05-04T12:38:52.922Z,1732
2017-05-04T12:40:05.225Z,1524
2017-05-04T12:41:17.537Z,1572
2017-05-04T12:42:30.320Z,1612
2017-05-04T12:43:43.104Z,1536
2017-05-04T12:44:55.888Z,1652
2017-05-04T12:46:08.685Z,1692
2017-05-04T12:47:20.989Z,1744
2017-05-04T12:48:33.775Z,1784
2017-05-04T12:49:46.763Z,1752
2017-05-04T12:50:59.547Z,1728
2017-05-04T12:52:12.331Z,1708
2017-05-04T12:53:24.632Z,1680
2017-05-04T12:54:36.454Z,1292
2017-05-04T12:55:48.756Z,1588
2017-05-04T12:57:01.065Z,1680
2017-05-04T12:58:12.884Z,1684
2017-05-04T12:59:25.191Z,1708
2017-05-04T13:00:37.016Z,1672
2017-05-04T13:01:49.801Z,1676
2017-05-04T13:03:02.590Z,1704
2017-05-04T13:04:15.379Z,1684
2017-05-04T13:05:28.168Z,1672
2017-05-04T13:06:40.779Z,1684
2017-05-04T13:07:53.565Z,1700
2017-05-04T13:09:06.351Z,1688
2017-05-04T13:10:18.663Z,1700
2017-05-04T13:11:31.174Z,1708
2017-05-04T13:12:43.477Z,1576
2017-05-04T13:13:56.275Z,1680
2017-05-04T13:15:09.060Z,1688
2017-05-04T13:16:20.887Z,1712
2017-05-04T13:17:33.677Z,1740
2017-05-04T13:18:46.467Z,1736
2017-05-04T13:19:58.770Z,1668
2017-05-04T13:21:10.595Z,1668
2017-05-04T13:22:23.386Z,1696
2017-05-04T13:23:36.173Z,1692
2017-05-04T13:24:48.958Z,1708
2017-05-04T13:26:01.261Z,1704
2017-05-04T13:27:14.049Z,1688
2017-05-04T13:28:26.363Z,1672
2017-05-04T13:29:39.150Z,1696
2017-05-04T13:30:51.452Z,1720
2017-05-04T13:32:04.241Z,1676
2017-05-04T13:33:17.034Z,1728
2017-05-04T13:34:28.855Z,1776
2017-05-04T13:35:41.156Z,1756
2017-05-04T13:36:53.943Z,1800
2017-05-04T13:38:06.729Z,1848
2017-05-04T13:39:19.524Z,1828
2017-05-04T13:40:32.312Z,1800
2017-05-04T13:41:45.103Z,1836
2017-05-04T13:42:57.130Z,1828
2017-05-04T13:44:09.923Z,1816
2017-05-04T13:45:22.228Z,1800
2017-05-04T13:46:35.015Z,1784
2017-05-04T13:47:47.806Z,1768
2017-05-04T13:49:00.800Z,1812
2017-05-04T13:50:13.109Z,1696
2017-05-04T13:51:25.897Z,1676
2017-05-04T13:52:38.684Z,1708
2017-05-04T13:53:51.483Z,1628
2017-05-04T13:55:03.804Z,1608
2017-05-04T13:56:16.610Z,1636
2017-05-04T13:57:29.430Z,1592
2017-05-04T13:58:42.220Z,1616
2017-05-04T13:59:55.016Z,1620
2017-05-04T14:01:07.807Z,1628
2017-05-04T14:02:20.122Z,1640
2017-05-04T14:03:32.444Z,1656
2017-05-04T14:04:45.251Z,1688
2017-05-04T14:05:58.055Z,1668
2017-05-04T14:07:10.364Z,1724
2017-05-04T14:08:23.155Z,1692
2017-05-04T14:09:35.466Z,1656
2017-05-04T14:10:47.787Z,1692
2017-05-04T14:12:00.580Z,1616
2017-05-04T14:13:13.370Z,1592
2017-05-04T14:14:26.183Z,1652
2017-05-04T14:15:38.988Z,1440
2017-05-04T14:16:51.309Z,1640
2017-05-04T14:18:03.629Z,1632
2017-05-04T14:19:16.419Z,1660
2017-05-04T14:20:28.727Z,1652
2017-05-04T14:21:41.526Z,1656
2017-05-04T14:22:54.326Z,1628
2017-05-04T14:24:07.133Z,1436
2017-05-04T14:25:19.448Z,1476
2017-05-04T14:26:31.757Z,1580
2017-05-04T14:27:44.570Z,1632
2017-05-04T14:28:56.887Z,1620
2017-05-04T14:30:09.209Z,1636
2017-05-04T14:31:21.042Z,1604
2017-05-04T14:32:33.843Z,1648
2017-05-04T14:33:46.634Z,1700
2017-05-04T14:34:59.147Z,1736
2017-05-04T14:36:11.935Z,1744
2017-05-04T14:37:24.738Z,1772
2017-05-04T14:38:37.087Z,1424
2017-05-04T14:39:49.888Z,776
2017-05-04T14:41:02.692Z,1612
2017-05-04T14:42:15.507Z,1732
2017-05-04T14:43:28.319Z,1752
2017-05-04T14:44:41.112Z,1712
2017-05-04T14:45:53.903Z,1672
2017-05-04T14:47:06.691Z,1724
2017-05-04T14:48:18.036Z,1696
2017-05-04T14:49:30.840Z,1568
2017-05-04T14:50:43.643Z,1560
2017-05-04T14:51:56.445Z,1568
2017-05-04T14:53:09.234Z,1520
2017-05-04T14:54:22.030Z,1456
2017-05-04T14:55:34.823Z,1468
2017-05-04T14:56:47.144Z,1444
2017-05-04T14:57:59.467Z,1428
2017-05-04T14:59:12.294Z,1376
2017-05-04T15:00:24.121Z,1364
2017-05-04T15:01:36.426Z,1376
2017-05-04T15:02:49.418Z,1316
2017-05-04T15:04:01.729Z,1316
2017-05-04T15:05:14.043Z,1292
2017-05-04T15:06:26.844Z,1292
2017-05-04T15:07:39.362Z,1292
2017-05-04T15:08:52.150Z,1292
2017-05-04T15:10:04.953Z,1256
2017-05-04T15:11:17.269Z,1244
2017-05-04T15:12:29.588Z,1168
2017-05-04T15:13:42.411Z,1224
2017-05-04T15:14:55.231Z,1140
2017-05-04T15:16:07.536Z,1208
2017-05-04T15:17:19.361Z,1184
2017-05-04T15:18:31.666Z,1164
2017-05-04T15:19:43.970Z,1156
2017-05-04T15:20:56.762Z,1124
2017-05-04T15:22:09.554Z,1104
2017-05-04T15:23:21.870Z,1068
2017-05-04T15:24:34.380Z,1064
2017-05-04T15:25:47.176Z,1032
2017-05-04T15:26:59.969Z,1004
2017-05-04T15:28:12.756Z,944
2017-05-04T15:29:24.589Z,936
2017-05-04T15:30:36.898Z,940
2017-05-04T15:31:49.208Z,920
2017-05-04T15:33:01.998Z,884
2017-05-04T15:34:13.819Z,860
2017-05-04T15:35:26.611Z,864
2017-05-04T15:36:38.919Z,836
2017-05-04T15:37:51.706Z,824
2017-05-04T15:39:04.410Z,828
2017-05-04T15:40:17.200Z,800
2017-05-04T15:41:29.991Z,800
2017-05-04T15:42:42.773Z,788
2017-05-04T15:43:55.562Z,776
2017-05-04T15:45:07.587Z,732
2017-05-04T15:46:19.895Z,704
2017-05-04T15:47:32.688Z,700
2017-05-04T15:48:45.483Z,684
2017-05-04T15:49:57.304Z,660
2017-05-04T15:51:10.095Z,640
2017-05-04T15:52:22.888Z,624
2017-05-04T15:53:35.686Z,628
2017-05-04T15:54:48.472Z,620
2017-05-04T15:56:01.267Z,604
2017-05-04T15:57:13.581Z,572
2017-05-04T15:58:26.382Z,556
2017-05-04T15:59:39.180Z,548
2017-05-04T16:00:51.967Z,532
2017-05-04T16:02:03.799Z,516
2017-05-04T16:03:15.657Z,532
2017-05-04T16:04:28.481Z,548
2017-05-04T16:05:41.274Z,572
2017-05-04T16:06:54.064Z,568
2017-05-04T16:08:06.862Z,600
2017-05-04T16:09:19.181Z,320
2017-05-04T16:10:31.493Z,316
2017-05-04T16:11:44.285Z,316
2017-05-04T16:12:57.073Z,316
2017-05-04T16:14:09.865Z,396
2017-05-04T16:15:22.652Z,396
2017-05-04T16:16:35.440Z,444
2017-05-04T16:17:48.238Z,452
2017-05-04T16:19:00.577Z,516
2017-05-04T16:20:12.890Z,596
2017-05-04T16:21:24.711Z,456
2017-05-04T16:22:37.217Z,384
2017-05-04T16:23:50.013Z,372
2017-05-04T16:25:02.326Z,488
2017-05-04T16:26:14.631Z,624
2017-05-04T16:27:27.419Z,648
2017-05-04T16:28:39.924Z,664
2017-05-04T16:29:52.719Z,664
2017-05-04T16:31:04.565Z,652
2017-05-04T16:32:17.360Z,596
2017-05-04T16:33:29.192Z,532
2017-05-04T16:34:41.982Z,536
2017-05-04T16:35:54.774Z,520
2017-05-04T16:37:07.563Z,528
2017-05-04T16:38:20.350Z,520
2017-05-04T16:39:32.654Z,504
2017-05-04T16:40:45.440Z,356
2017-05-04T16:41:58.225Z,320
2017-05-04T16:43:11.012Z,320
2017-05-04T16:44:23.799Z,296
2017-05-04T16:45:36.591Z,308
2017-05-04T16:46:49.381Z,336
2017-05-04T16:48:02.171Z,364
2017-05-04T16:49:14.476Z,404
2017-05-04T16:50:26.783Z,432
2017-05-04T16:51:39.089Z,460
2017-05-04T16:52:51.879Z,484
2017-05-04T16:54:04.184Z,524
2017-05-04T16:55:17.272Z,564
2017-05-04T16:56:30.065Z,600
2017-05-04T16:57:41.889Z,644
2017-05-04T16:58:54.199Z,680